createdAt,value
2018-08-18T00:00:09.440Z,15.60
2018-08-18T00:02:39.990Z,15.60
2018-08-18T00:05:09.824Z,15.60
2018-08-18T00:07:38.310Z,15.60
2018-08-18T00:10:08.524Z,15.50
2018-08-18T00:12:37.071Z,15.50
2018-08-18T00:15:06.368Z,15.50
2018-08-18T00:17:36.809Z,15.50
2018-08-18T00:20:07.668Z,15.40
2018-08-18T00:22:36.444Z,15.40
2018-08-18T00:25:05.379Z,15.20
2018-08-18T00:27:34.740Z,15.10
2018-08-18T00:30:08.526Z,15.10
2018-08-18T00:32:36.955Z,15.00
2018-08-18T00:35:06.997Z,15.00
2018-08-18T00:37:35.784Z,15.00
2018-08-18T00:40:05.058Z,15.00
2018-08-18T00:42:33.541Z,15.00
2018-08-18T00:45:02.054Z,15.00
2018-08-18T00:47:30.485Z,15.00
2018-08-18T00:49:59.461Z,14.90
2018-08-18T00:52:27.912Z,14.90
2018-08-18T00:54:56.354Z,14.90
2018-08-18T00:57:27.736Z,14.90
2018-08-18T01:00:02.731Z,14.90
2018-08-18T01:02:31.804Z,14.80
2018-08-18T01:05:01.500Z,14.80
2018-08-18T01:07:30.852Z,14.70
2018-08-18T01:09:59.844Z,14.70
2018-08-18T01:12:28.821Z,14.70
2018-08-18T01:14:57.580Z,14.60
2018-08-18T01:17:26.286Z,14.60
2018-08-18T01:19:56.268Z,14.50
2018-08-18T01:22:24.787Z,14.50
2018-08-18T01:24:53.876Z,14.40
2018-08-18T01:27:22.784Z,14.40
2018-08-18T01:29:56.636Z,14.30
2018-08-18T01:32:25.176Z,14.30
2018-08-18T01:34:54.291Z,14.30
2018-08-18T01:37:22.772Z,14.40
2018-08-18T01:39:53.380Z,14.40
2018-08-18T01:42:22.124Z,14.40
2018-08-18T01:44:53.049Z,14.30
2018-08-18T01:47:21.520Z,14.30
2018-08-18T01:49:49.965Z,14.40
2018-08-18T01:52:23.499Z,14.40
2018-08-18T01:54:52.196Z,14.30
2018-08-18T01:57:21.892Z,14.30
2018-08-18T01:59:50.568Z,14.30
2018-08-18T02:02:22.436Z,14.20
2018-08-18T02:04:51.052Z,14.30
2018-08-18T02:07:24.512Z,14.20
2018-08-18T02:09:54.956Z,14.20
2018-08-18T02:12:23.947Z,14.20
2018-08-18T02:14:52.484Z,14.20
2018-08-18T02:17:28.372Z,14.20
2018-08-18T02:19:57.187Z,14.20
2018-08-18T02:22:26.384Z,14.20
2018-08-18T02:24:54.830Z,14.20
2018-08-18T02:27:23.289Z,14.20
2018-08-18T02:30:03.991Z,14.20
2018-08-18T02:32:34.492Z,14.20
2018-08-18T02:35:03.009Z,14.10
2018-08-18T02:37:31.656Z,14.10
2018-08-18T02:40:00.139Z,14.10
2018-08-18T02:42:28.608Z,14.10
2018-08-18T02:44:57.060Z,14.00
2018-08-18T02:47:25.565Z,14.00
2018-08-18T02:49:55.065Z,13.90
2018-08-18T02:52:24.609Z,13.90
2018-08-18T02:54:55.716Z,13.90
2018-08-18T02:57:33.906Z,13.80
2018-08-18T03:00:03.563Z,13.80
2018-08-18T03:02:32.248Z,13.70
2018-08-18T03:05:00.765Z,13.70
2018-08-18T03:07:37.049Z,13.70
2018-08-18T03:10:15.860Z,13.70
2018-08-18T03:12:45.022Z,13.60
2018-08-18T03:15:27.681Z,13.70
2018-08-18T03:17:56.176Z,13.70
2018-08-18T03:20:24.828Z,13.60
2018-08-18T03:22:53.341Z,13.60
2018-08-18T03:25:26.636Z,13.50
2018-08-18T03:27:55.061Z,13.60
2018-08-18T03:30:23.552Z,13.50
2018-08-18T03:32:51.989Z,13.50
2018-08-18T03:35:20.493Z,13.50
2018-08-18T03:37:48.993Z,13.50
2018-08-18T03:40:17.457Z,13.40
2018-08-18T03:42:45.921Z,13.40
2018-08-18T03:45:14.362Z,13.40
2018-08-18T03:47:42.861Z,13.40
2018-08-18T03:50:11.352Z,13.30
2018-08-18T03:52:39.825Z,13.30
2018-08-18T03:55:08.263Z,13.30
2018-08-18T03:57:51.676Z,13.20
2018-08-18T04:00:20.143Z,13.20
2018-08-18T04:02:48.742Z,13.20
2018-08-18T04:05:17.409Z,13.20
2018-08-18T04:07:47.635Z,13.20
2018-08-18T04:10:18.141Z,13.10
2018-08-18T04:12:46.681Z,13.10
2018-08-18T04:15:15.179Z,13.10
2018-08-18T04:17:43.635Z,13.00
2018-08-18T04:20:12.173Z,12.90
2018-08-18T04:22:41.200Z,13.00
2018-08-18T04:25:09.752Z,13.00
2018-08-18T04:27:41.758Z,13.00
2018-08-18T04:30:13.431Z,13.00
2018-08-18T04:32:51.122Z,13.00
2018-08-18T04:35:25.881Z,13.00
2018-08-18T04:37:54.948Z,13.10
2018-08-18T04:40:23.839Z,13.00
2018-08-18T04:42:52.463Z,13.00
2018-08-18T04:45:22.033Z,13.00
2018-08-18T04:47:50.527Z,13.00
2018-08-18T04:50:19.201Z,13.00
2018-08-18T04:52:47.666Z,13.00
2018-08-18T04:55:18.207Z,13.00
2018-08-18T04:57:46.711Z,13.10
2018-08-18T05:00:15.591Z,13.10
2018-08-18T05:02:59.555Z,13.10
2018-08-18T05:05:29.204Z,13.10
2018-08-18T05:07:58.891Z,13.10
2018-08-18T05:10:27.552Z,13.10
2018-08-18T05:12:56.033Z,13.20
2018-08-18T05:15:24.524Z,13.10
2018-08-18T05:17:53.862Z,13.00
2018-08-18T05:20:27.652Z,13.00
2018-08-18T05:23:04.812Z,13.10
2018-08-18T05:25:37.701Z,13.20
2018-08-18T05:28:06.175Z,13.20
2018-08-18T05:30:34.647Z,13.30
2018-08-18T05:33:03.121Z,13.40
2018-08-18T05:35:31.950Z,13.50
2018-08-18T05:38:01.156Z,13.60
2018-08-18T05:40:29.784Z,13.60
2018-08-18T05:42:58.240Z,13.70
2018-08-18T05:45:28.250Z,13.80
2018-08-18T05:47:56.668Z,13.80
2018-08-18T05:50:26.142Z,13.90
2018-08-18T05:52:57.711Z,13.90
2018-08-18T05:55:26.472Z,14.00
2018-08-18T05:57:55.136Z,14.00
2018-08-18T06:00:25.236Z,14.00
2018-08-18T06:02:59.074Z,14.10
2018-08-18T06:05:30.870Z,14.10
2018-08-18T06:08:00.528Z,14.20
2018-08-18T06:10:29.017Z,14.30
2018-08-18T06:12:58.453Z,14.40
2018-08-18T06:15:26.907Z,14.50
2018-08-18T06:17:55.402Z,14.50
2018-08-18T06:20:23.868Z,14.60
2018-08-18T06:22:52.345Z,14.70
2018-08-18T06:25:20.852Z,14.80
2018-08-18T06:27:49.328Z,14.90
2018-08-18T06:30:24.526Z,15.10
2018-08-18T06:32:52.981Z,15.20
2018-08-18T06:35:21.429Z,15.40
2018-08-18T06:37:54.132Z,15.70
2018-08-18T06:40:22.583Z,16.10
2018-08-18T06:42:51.063Z,16.40
2018-08-18T06:45:20.597Z,16.70
2018-08-18T06:47:49.107Z,17.00
2018-08-18T06:50:18.443Z,17.20
2018-08-18T06:52:47.379Z,17.30
2018-08-18T06:55:17.636Z,17.40
2018-08-18T06:57:49.341Z,17.60
2018-08-18T07:00:19.823Z,17.80
2018-08-18T07:02:48.332Z,17.80
2018-08-18T07:05:17.888Z,17.90
2018-08-18T07:07:48.253Z,17.90
2018-08-18T07:10:37.682Z,17.90
2018-08-18T07:13:07.775Z,18.00
2018-08-18T07:15:37.525Z,18.20
2018-08-18T07:18:07.707Z,18.20
2018-08-18T07:20:37.510Z,18.20
2018-08-18T07:23:06.554Z,18.20
2018-08-18T07:26:15.398Z,18.30
2018-08-18T07:28:47.156Z,18.30
2018-08-18T07:31:15.456Z,18.40
2018-08-18T07:33:43.989Z,18.40
2018-08-18T07:36:12.529Z,18.50
2018-08-18T07:38:40.981Z,18.60
2018-08-18T07:41:09.462Z,18.60
2018-08-18T07:43:37.962Z,18.60
2018-08-18T07:46:07.983Z,18.80
2018-08-18T07:48:36.460Z,18.90
2018-08-18T07:51:04.993Z,19.00
2018-08-18T07:53:33.540Z,19.00
2018-08-18T07:56:01.927Z,19.00
2018-08-18T07:58:30.496Z,19.10
2018-08-18T08:01:00.210Z,19.30
2018-08-18T08:03:28.696Z,19.20
2018-08-18T08:05:57.164Z,19.30
2018-08-18T08:08:29.009Z,19.30
2018-08-18T08:11:01.675Z,19.30
2018-08-18T08:13:30.176Z,19.40
2018-08-18T08:15:58.681Z,19.40
2018-08-18T08:18:27.204Z,19.40
2018-08-18T08:20:55.700Z,19.30
2018-08-18T08:23:24.216Z,19.40
2018-08-18T08:25:52.767Z,19.50
2018-08-18T08:28:21.327Z,19.50
2018-08-18T08:30:49.793Z,19.50
2018-08-18T08:33:35.437Z,19.60
2018-08-18T08:36:07.958Z,19.70
2018-08-18T08:38:57.194Z,19.80
2018-08-18T08:41:27.095Z,19.80
2018-08-18T08:43:55.636Z,19.90
2018-08-18T08:46:24.121Z,20.00
2018-08-18T08:48:55.194Z,19.90
2018-08-18T08:51:23.696Z,20.00
2018-08-18T08:53:53.612Z,20.10
2018-08-18T08:56:27.514Z,20.20
2018-08-18T08:58:56.177Z,20.20
2018-08-18T09:01:24.608Z,20.10
2018-08-18T09:03:53.089Z,20.20
2018-08-18T09:06:21.550Z,20.30
2018-08-18T09:08:54.544Z,20.30
2018-08-18T09:11:23.183Z,20.40
2018-08-18T09:14:06.841Z,20.50
2018-08-18T09:16:35.496Z,20.50
2018-08-18T09:19:03.997Z,20.40
2018-08-18T09:22:04.978Z,20.60
2018-08-18T09:24:33.695Z,20.60
2018-08-18T09:27:04.680Z,20.80
2018-08-18T09:29:38.229Z,20.90
2018-08-18T09:32:06.740Z,21.00
2018-08-18T09:34:40.629Z,21.00
2018-08-18T09:37:09.104Z,21.00
2018-08-18T09:39:37.552Z,21.00
2018-08-18T09:42:09.881Z,21.00
2018-08-18T09:44:41.137Z,20.90
2018-08-18T09:47:09.662Z,21.00
2018-08-18T09:49:38.134Z,21.20
2018-08-18T09:52:07.781Z,21.30
2018-08-18T09:54:36.318Z,21.40
2018-08-18T09:57:05.211Z,21.50
2018-08-18T09:59:33.842Z,21.60
2018-08-18T10:02:02.420Z,21.70
2018-08-18T10:04:30.917Z,21.60
2018-08-18T10:06:59.427Z,21.50
2018-08-18T10:09:27.970Z,21.50
2018-08-18T10:11:56.461Z,21.60
2018-08-18T10:14:24.937Z,21.60
2018-08-18T10:16:53.448Z,21.50
2018-08-18T10:19:21.923Z,21.20
2018-08-18T10:21:50.468Z,21.40
2018-08-18T10:24:19.460Z,21.40
2018-08-18T10:26:53.732Z,21.60
2018-08-18T10:29:23.515Z,21.80
2018-08-18T10:31:56.038Z,21.90
2018-08-18T10:34:26.594Z,22.00
2018-08-18T10:37:03.014Z,22.00
2018-08-18T10:39:31.485Z,22.10
2018-08-18T10:42:07.563Z,22.30
2018-08-18T10:44:36.152Z,22.40
2018-08-18T10:47:15.437Z,22.30
2018-08-18T10:49:55.287Z,22.10
2018-08-18T10:52:35.865Z,22.10
2018-08-18T10:55:06.327Z,22.10
2018-08-18T10:57:47.257Z,21.90
2018-08-18T11:00:17.939Z,21.90
2018-08-18T11:02:47.801Z,22.00
2018-08-18T11:05:16.948Z,22.00
2018-08-18T11:07:52.982Z,22.20
2018-08-18T11:10:22.284Z,22.20
2018-08-18T11:12:50.870Z,22.20
2018-08-18T11:15:19.630Z,22.30
2018-08-18T11:17:49.632Z,22.40
2018-08-18T11:20:19.196Z,22.20
2018-08-18T11:23:13.733Z,22.30
2018-08-18T11:25:45.360Z,22.40
2018-08-18T11:28:14.488Z,22.50
2018-08-18T11:30:42.915Z,22.50
2018-08-18T11:33:15.377Z,22.60
2018-08-18T11:35:47.328Z,22.60
2018-08-18T11:38:18.498Z,22.70
2018-08-18T11:40:47.015Z,22.80
2018-08-18T11:43:16.675Z,22.80
2018-08-18T11:45:46.706Z,22.80
2018-08-18T11:48:23.376Z,22.90
2018-08-18T11:50:54.005Z,23.00
2018-08-18T11:53:22.548Z,23.20
2018-08-18T11:55:52.084Z,23.30
2018-08-18T11:58:21.695Z,23.30
2018-08-18T12:00:57.550Z,23.30
2018-08-18T12:03:31.361Z,23.30
2018-08-18T12:06:01.824Z,23.40
2018-08-18T12:08:32.616Z,23.40
2018-08-18T12:11:02.589Z,23.50
2018-08-18T12:13:36.312Z,23.60
2018-08-18T12:16:10.224Z,23.70
2018-08-18T12:18:39.746Z,23.70
2018-08-18T12:21:08.676Z,23.70
2018-08-18T12:23:38.416Z,23.80
2018-08-18T12:26:13.780Z,23.80
2018-08-18T12:28:48.423Z,23.60
2018-08-18T12:31:20.272Z,23.70
2018-08-18T12:33:48.795Z,23.70
2018-08-18T12:36:17.467Z,23.70
2018-08-18T12:38:49.223Z,23.70
2018-08-18T12:41:17.727Z,23.70
2018-08-18T12:43:51.441Z,23.60
2018-08-18T12:46:22.133Z,23.60
2018-08-18T12:48:51.965Z,23.70
2018-08-18T12:51:21.013Z,23.70
2018-08-18T12:53:56.544Z,23.60
2018-08-18T12:56:26.480Z,23.70
2018-08-18T12:58:55.069Z,23.70
2018-08-18T13:01:36.761Z,23.80
2018-08-18T13:04:07.359Z,23.90
2018-08-18T13:06:41.128Z,23.70
2018-08-18T13:09:11.486Z,23.80
2018-08-18T13:11:40.130Z,23.90
2018-08-18T13:14:08.583Z,24.00
2018-08-18T13:16:37.520Z,24.00
2018-08-18T13:19:06.661Z,24.00
2018-08-18T13:21:35.099Z,24.10
2018-08-18T13:24:03.812Z,24.10
2018-08-18T13:26:32.339Z,24.00
2018-08-18T13:29:00.868Z,24.00
2018-08-18T13:31:34.864Z,24.00
2018-08-18T13:34:12.265Z,24.00
2018-08-18T13:36:42.012Z,24.20
2018-08-18T13:39:13.112Z,24.30
2018-08-18T13:41:42.177Z,24.30
2018-08-18T13:44:11.771Z,24.20
2018-08-18T13:46:48.398Z,24.30
2018-08-18T13:49:19.840Z,24.40
2018-08-18T13:51:48.361Z,24.40
2018-08-18T13:54:17.221Z,24.30
2018-08-18T13:56:45.732Z,24.30
2018-08-18T13:59:14.287Z,24.30
2018-08-18T14:01:44.898Z,24.50
2018-08-18T14:04:21.357Z,24.50
2018-08-18T14:06:54.354Z,24.40
2018-08-18T14:09:22.925Z,24.40
2018-08-18T14:11:54.740Z,24.50
2018-08-18T14:14:23.205Z,24.60
2018-08-18T14:16:51.741Z,24.50
2018-08-18T14:19:21.488Z,24.50
2018-08-18T14:21:54.197Z,24.60
2018-08-18T14:24:26.881Z,24.50
2018-08-18T14:27:00.364Z,24.50
2018-08-18T14:29:29.989Z,24.50
2018-08-18T14:31:58.613Z,24.60
2018-08-18T14:34:27.248Z,24.60
2018-08-18T14:37:15.242Z,24.70
2018-08-18T14:39:44.021Z,24.70
2018-08-18T14:42:12.516Z,24.50
2018-08-18T14:44:41.055Z,24.60
2018-08-18T14:47:09.552Z,24.60
2018-08-18T14:49:38.090Z,24.70
2018-08-18T14:52:06.611Z,24.60
2018-08-18T14:54:35.254Z,24.70
2018-08-18T14:57:04.082Z,24.70
2018-08-18T14:59:34.568Z,24.70
2018-08-18T15:02:04.912Z,24.70
2018-08-18T15:04:34.136Z,24.70
2018-08-18T15:07:02.890Z,24.70
2018-08-18T15:09:44.288Z,24.60
2018-08-18T15:12:12.782Z,24.60
2018-08-18T15:14:42.007Z,24.60
2018-08-18T15:17:10.842Z,24.60
2018-08-18T15:19:39.467Z,24.60
2018-08-18T15:22:09.459Z,24.60
2018-08-18T15:24:38.035Z,24.50
2018-08-18T15:27:06.545Z,24.50
2018-08-18T15:29:35.006Z,24.60
2018-08-18T15:32:03.547Z,24.60
2018-08-18T15:34:31.999Z,24.50
2018-08-18T15:37:00.515Z,24.50
2018-08-18T15:39:29.593Z,24.50
2018-08-18T15:41:59.452Z,24.50
2018-08-18T15:44:28.440Z,24.50
2018-08-18T15:46:57.397Z,24.40
2018-08-18T15:49:26.169Z,24.40
2018-08-18T15:51:55.540Z,24.40
2018-08-18T15:54:24.784Z,24.40
2018-08-18T15:56:53.135Z,24.40
2018-08-18T15:59:21.722Z,24.40
2018-08-18T16:01:51.052Z,24.40
2018-08-18T16:04:19.517Z,24.40
2018-08-18T16:06:47.986Z,24.30
2018-08-18T16:09:16.500Z,24.30
2018-08-18T16:11:44.963Z,24.20
2018-08-18T16:14:13.428Z,24.20
2018-08-18T16:16:56.938Z,24.10
2018-08-18T16:19:25.968Z,24.10
2018-08-18T16:21:54.456Z,24.00
2018-08-18T16:24:30.903Z,24.00
2018-08-18T16:27:00.227Z,23.90
2018-08-18T16:29:28.723Z,23.90
2018-08-18T16:32:13.064Z,23.90
